createdAt,value
2018-04-23T00:00:23.106Z,82.6
2018-04-23T00:01:33.230Z,82.79
2018-04-23T00:02:43.401Z,83.27
2018-04-23T00:03:52.915Z,83.94
2018-04-23T00:05:03.127Z,83.56
2018-04-23T00:06:13.288Z,83.56
2018-04-23T00:07:23.246Z,83.56
2018-04-23T00:08:33.398Z,83.94
2018-04-23T00:09:43.617Z,83.56
2018-04-23T00:10:53.235Z,83.94
2018-04-23T00:12:03.379Z,83.65
2018-04-23T00:13:13.276Z,83.75
2018-04-23T00:14:22.937Z,84.23
2018-04-23T00:15:32.863Z,84.81
2018-04-23T00:16:42.770Z,85.19
2018-04-23T00:17:52.932Z,85.1
2018-04-23T00:19:03.064Z,84.75
2018-04-23T00:20:13.334Z,85.19
2018-04-23T00:21:23.465Z,85.04
2018-04-23T00:22:33.721Z,85.14
2018-04-23T00:23:44.020Z,85.28
2018-04-23T00:24:54.244Z,85
2018-04-23T00:26:04.444Z,85.19
2018-04-23T00:27:14.698Z,84.81
2018-04-23T00:28:24.842Z,84.37
2018-04-23T00:29:35.002Z,84.23
2018-04-23T00:30:45.202Z,83.94
2018-04-23T00:31:55.430Z,83.75
2018-04-23T00:33:05.701Z,83.75
2018-04-23T00:34:15.928Z,83.56
2018-04-23T00:35:26.222Z,82.74
2018-04-23T00:36:36.446Z,82.89
2018-04-23T00:37:46.665Z,82.54
2018-04-23T00:38:56.809Z,82.31
2018-04-23T00:40:07.003Z,82.07
2018-04-23T00:41:17.233Z,81.74
2018-04-23T00:42:27.448Z,81.87
2018-04-23T00:43:38.676Z,81.64
2018-04-23T00:44:48.830Z,82.03
2018-04-23T00:45:58.992Z,81.87
2018-04-23T00:47:09.156Z,81.4
2018-04-23T00:48:19.322Z,81.49
2018-04-23T00:49:29.459Z,81.49
2018-04-23T00:50:39.517Z,81.4
2018-04-23T00:51:49.387Z,81.68
2018-04-23T00:52:59.511Z,81.59
2018-04-23T00:54:09.697Z,81.78
2018-04-23T00:55:19.923Z,81.4
2018-04-23T00:56:29.561Z,80.63
2018-04-23T00:57:39.790Z,81.78
2018-04-23T00:58:49.979Z,81.87
2018-04-23T01:00:00.116Z,82.26
2018-04-23T01:01:10.257Z,82.93
2018-04-23T01:02:20.072Z,82.74
2018-04-23T01:03:30.213Z,82.74
2018-04-23T01:04:40.348Z,82.93
2018-04-23T01:05:50.476Z,83.03
2018-04-23T01:07:00.636Z,82.93
2018-04-23T01:08:10.821Z,82.74
2018-04-23T01:09:21.038Z,83.12
2018-04-23T01:10:31.291Z,82.93
2018-04-23T01:11:41.508Z,82.84
2018-04-23T01:12:51.434Z,83.8
2018-04-23T01:14:01.556Z,83.8
2018-04-23T01:15:11.463Z,83.8
2018-04-23T01:16:21.440Z,83.12
2018-04-23T01:17:31.594Z,83.03
2018-04-23T01:18:41.765Z,82.64
2018-04-23T01:19:51.887Z,82.26
2018-04-23T01:21:02.020Z,81.84
2018-04-23T01:22:12.201Z,82.03
2018-04-23T01:23:22.424Z,82.41
2018-04-23T01:24:32.637Z,81.93
2018-04-23T01:25:42.515Z,81.93
2018-04-23T01:26:52.303Z,81.74
2018-04-23T01:28:02.431Z,81.64
2018-04-23T01:29:12.600Z,81.54
2018-04-23T01:30:22.836Z,81.07
2018-04-23T01:31:32.982Z,81.07
2018-04-23T01:32:43.181Z,81.16
2018-04-23T01:33:53.430Z,81.07
2018-04-23T01:35:03.301Z,81.16
2018-04-23T01:36:13.270Z,80.78
2018-04-23T01:37:23.495Z,81.07
2018-04-23T01:38:33.385Z,81.26
2018-04-23T01:39:43.290Z,80.58
2018-04-23T01:40:53.445Z,80.68
2018-04-23T01:42:03.563Z,80.3
2018-04-23T01:43:13.712Z,80.4
2018-04-23T01:44:23.855Z,80.68
2018-04-23T01:45:33.468Z,80.49
2018-04-23T01:46:43.833Z,80.68
2018-04-23T01:47:54.120Z,80.01
2018-04-23T01:49:04.343Z,80.2
2018-04-23T01:50:14.603Z,79.72
2018-04-23T01:51:24.817Z,79.72
2018-04-23T01:52:35.140Z,79.72
2018-04-23T01:53:45.339Z,79.72
2018-04-23T01:54:55.529Z,79.72
2018-04-23T01:56:05.312Z,79.72
2018-04-23T01:57:15.509Z,79.91
2018-04-23T01:58:25.659Z,79.91
2018-04-23T01:59:35.810Z,80.4
2018-04-23T02:00:45.968Z,80.49
2018-04-23T02:01:56.135Z,80.11
2018-04-23T02:03:06.038Z,80.2
2018-04-23T02:04:16.270Z,80.2
2018-04-23T02:05:26.560Z,80.49
2018-04-23T02:06:36.188Z,80.68
2018-04-23T02:07:46.332Z,80.4
2018-04-23T02:08:56.210Z,80.58
2018-04-23T02:10:06.398Z,80.58
2018-04-23T02:11:16.626Z,80.4
2018-04-23T02:12:26.863Z,80.58
2018-04-23T02:13:37.115Z,79.82
2018-04-23T02:14:47.253Z,80.58
2018-04-23T02:15:57.496Z,80.49
2018-04-23T02:17:07.746Z,80.49
2018-04-23T02:18:17.915Z,80.49
2018-04-23T02:19:28.175Z,80.4
2018-04-23T02:20:38.352Z,80.4
2018-04-23T02:21:48.542Z,80.01
2018-04-23T02:22:58.867Z,80.2
2018-04-23T02:24:09.057Z,80.2
2018-04-23T02:25:19.247Z,79.91
2018-04-23T02:26:29.409Z,80.01
2018-04-23T02:27:39.650Z,80.01
2018-04-23T02:28:49.823Z,80.49
2018-04-23T02:31:15.989Z,80.55
2018-04-23T02:32:27.359Z,80.45
2018-04-23T02:33:37.559Z,80.3
2018-04-23T02:34:47.730Z,80.26
2018-04-23T02:35:57.915Z,80.35
2018-04-23T02:37:08.074Z,80.55
2018-04-23T02:38:18.219Z,80.35
2018-04-23T02:39:28.420Z,80.45
2018-04-23T02:40:38.654Z,80.16
2018-04-23T02:41:48.781Z,80.55
2018-04-23T02:43:00.073Z,79.97
2018-04-23T02:44:11.212Z,80.16
2018-04-23T02:45:21.347Z,80.35
2018-04-23T02:46:31.522Z,80.45
2018-04-23T02:47:41.680Z,80.26
2018-04-23T02:50:04.411Z,79.88
2018-04-23T02:51:14.608Z,79.97
2018-04-23T02:52:24.794Z,80.35
2018-04-23T02:53:34.985Z,80.16
2018-04-23T02:54:45.125Z,80.35
2018-04-23T02:55:55.276Z,80.35
2018-04-23T02:57:05.139Z,80.45
2018-04-23T02:58:15.289Z,80.45
2018-04-23T02:59:25.420Z,80.45
2018-04-23T03:00:35.630Z,80.83
2018-04-23T03:01:45.841Z,80.64
2018-04-23T03:02:55.750Z,80.45
2018-04-23T03:04:05.880Z,80.55
2018-04-23T03:05:16.058Z,80.93
2018-04-23T03:06:26.335Z,80.93
2018-04-23T03:07:36.500Z,80.55
2018-04-23T03:08:46.651Z,80.74
2018-04-23T03:11:12.735Z,80.83
2018-04-23T03:12:22.902Z,81.02
2018-04-23T03:13:33.043Z,81.02
2018-04-23T03:14:43.219Z,81.12
2018-04-23T03:15:53.372Z,81.31
2018-04-23T03:17:03.568Z,80.93
2018-04-23T03:18:13.782Z,80.35
2018-04-23T03:19:23.946Z,80.64
2018-04-23T03:20:34.361Z,80.74
2018-04-23T03:21:44.251Z,80.74
2018-04-23T03:22:54.430Z,80.26
2018-04-23T03:24:04.587Z,80.07
2018-04-23T03:25:14.731Z,80.64
2018-04-23T03:26:24.871Z,80.07
2018-04-23T03:27:35.029Z,79.88
2018-04-23T03:28:44.957Z,79.59
2018-04-23T03:29:55.242Z,79.78
2018-04-23T03:31:05.381Z,79.68
2018-04-23T03:32:15.606Z,79.59
2018-04-23T03:33:25.749Z,79.39
2018-04-23T03:34:35.948Z,79.01
2018-04-23T03:35:46.157Z,79.49
2018-04-23T03:36:56.410Z,79.39
2018-04-23T03:38:06.683Z,79.39
2018-04-23T03:39:16.908Z,79.59
2018-04-23T03:40:27.092Z,79.3
2018-04-23T03:41:37.305Z,79.3
2018-04-23T03:42:47.562Z,79.11
2018-04-23T03:43:57.772Z,79.21
2018-04-23T03:45:07.948Z,78.82
2018-04-23T03:46:18.153Z,79.01
2018-04-23T03:47:28.306Z,78.72
2018-04-23T03:48:38.481Z,79.01
2018-04-23T03:49:48.649Z,78.82
2018-04-23T03:50:58.832Z,79.3
2018-04-23T03:52:08.622Z,78.92
2018-04-23T03:53:18.757Z,78.82
2018-04-23T03:54:28.897Z,78.63
2018-04-23T03:55:39.057Z,78.63
2018-04-23T03:56:48.878Z,78.63
2018-04-23T03:57:59.049Z,78.53
2018-04-23T03:59:09.181Z,78.53
2018-04-23T04:00:19.471Z,78.53
2018-04-23T04:01:29.661Z,78.82
2018-04-23T04:02:39.920Z,78.53
2018-04-23T04:03:50.137Z,78.53
2018-04-23T04:05:00.313Z,78.53
2018-04-23T04:06:10.469Z,78.92
2018-04-23T04:07:20.806Z,79.01
2018-04-23T04:08:30.969Z,79.68
2018-04-23T04:09:41.185Z,79.11
2018-04-23T04:10:51.834Z,78.72
2018-04-23T04:12:02.227Z,78.92
2018-04-23T04:13:12.157Z,79.01
2018-04-23T04:14:22.576Z,79.01
2018-04-23T04:15:32.789Z,78.77
2018-04-23T04:16:43.049Z,78.96
2018-04-23T04:17:53.337Z,79.05
2018-04-23T04:19:03.509Z,79.05
2018-04-23T04:20:13.669Z,79.05
2018-04-23T04:21:23.877Z,79.05
2018-04-23T04:22:34.085Z,78.96
2018-04-23T04:23:43.952Z,78.57
2018-04-23T04:24:54.095Z,78.57
2018-04-23T04:26:04.313Z,78.47
2018-04-23T04:27:14.508Z,78.67
2018-04-23T04:28:24.716Z,78.57
2018-04-23T04:29:34.894Z,78.28
2018-04-23T04:30:45.072Z,78.38
2018-04-23T04:31:55.248Z,78
2018-04-23T04:33:05.438Z,78.19
2018-04-23T04:34:15.438Z,78.19
2018-04-23T04:35:25.599Z,78.19
2018-04-23T04:36:36.013Z,78.57
2018-04-23T04:37:46.169Z,78.57
2018-04-23T04:38:56.052Z,78.96
2018-04-23T04:40:06.262Z,78.67
2018-04-23T04:41:16.410Z,79.24
2018-04-23T04:42:26.542Z,79.53
2018-04-23T04:43:36.689Z,80.01
2018-04-23T04:44:46.886Z,79.53
2018-04-23T04:45:57.062Z,79.63
2018-04-23T04:47:07.215Z,80.49
2018-04-23T04:48:17.476Z,80.11
2018-04-23T04:49:27.740Z,80.4
2018-04-23T04:50:37.917Z,81.35
2018-04-23T04:51:48.182Z,81.35
2018-04-23T04:52:58.367Z,81.54
2018-04-23T04:54:08.630Z,82.21
2018-04-23T04:55:18.807Z,82.85
2018-04-23T04:56:28.968Z,82.85
2018-04-23T04:57:39.130Z,83.42
2018-04-23T04:58:49.280Z,83.42
2018-04-23T04:59:59.431Z,83.91
2018-04-23T05:01:09.605Z,84.95
2018-04-23T05:02:19.393Z,84.77
2018-04-23T05:03:29.564Z,85.44
2018-04-23T05:04:39.699Z,85.82
2018-04-23T05:05:49.870Z,85.63
2018-04-23T05:06:59.891Z,85.97
2018-04-23T05:08:10.327Z,86.45
2018-04-23T05:09:20.489Z,86.64
2018-04-23T05:10:30.874Z,87.12
2018-04-23T05:11:41.015Z,87.6
2018-04-23T05:12:51.273Z,87.5
2018-04-23T05:14:01.423Z,87.41
2018-04-23T05:15:11.622Z,87.79
2018-04-23T05:16:21.933Z,87.7
2018-04-23T05:17:32.151Z,87.98
2018-04-23T05:18:42.316Z,88.08
2018-04-23T05:19:52.516Z,88.27
2018-04-23T05:21:02.785Z,88.27
2018-04-23T05:22:12.958Z,88.46
2018-04-23T05:23:23.108Z,88.37
2018-04-23T05:24:33.239Z,88.37
2018-04-23T05:25:43.369Z,88.17
2018-04-23T05:26:53.591Z,88.27
2018-04-23T05:28:03.730Z,88.37
2018-04-23T05:29:13.943Z,88.37
2018-04-23T05:30:24.101Z,88.17
2018-04-23T05:31:33.875Z,88.51
2018-04-23T05:32:44.051Z,88.12
2018-04-23T05:33:53.966Z,88.41
2018-04-23T05:35:04.110Z,87.84
2018-04-23T05:36:14.282Z,87.64
2018-04-23T05:37:24.468Z,87.74
2018-04-23T05:38:34.780Z,88.41
2018-04-23T05:39:45.002Z,88.22
2018-04-23T05:40:55.160Z,88.31
2018-04-23T05:42:06.275Z,88.51
2018-04-23T05:43:16.521Z,88.41
2018-04-23T05:44:26.741Z,88.22
2018-04-23T05:45:37.029Z,87.64
2018-04-23T05:46:47.274Z,87.93
2018-04-23T05:47:57.543Z,87.59
2018-04-23T05:49:07.743Z,87.01
2018-04-23T05:50:18.018Z,87.11
2018-04-23T05:51:28.177Z,87.88
2018-04-23T05:52:37.972Z,87.98
2018-04-23T05:53:48.146Z,87.11
2018-04-23T05:54:58.347Z,87.25
2018-04-23T05:56:08.781Z,87.35
2018-04-23T05:57:18.925Z,87.15
2018-04-23T05:58:29.091Z,86.38
2018-04-23T05:59:39.241Z,86.48
2018-04-23T06:00:49.370Z,86.77
2018-04-23T06:01:59.511Z,86.68
2018-04-23T06:03:09.804Z,86
2018-04-23T06:04:19.971Z,86.1
2018-04-23T06:05:30.327Z,85.52
2018-04-23T06:06:40.519Z,85.14
2018-04-23T06:07:50.679Z,85.28
2018-04-23T06:09:00.839Z,85.57
2018-04-23T06:10:11.113Z,86.05
2018-04-23T06:11:21.045Z,85.95
2018-04-23T06:12:31.208Z,86.05
2018-04-23T06:13:41.475Z,85.66
2018-04-23T06:14:51.673Z,85.75
2018-04-23T06:16:01.848Z,85.75
2018-04-23T06:17:11.997Z,85.37
2018-04-23T06:18:22.216Z,85.66
2018-04-23T06:19:32.385Z,85.57
2018-04-23T06:20:42.658Z,85.37
2018-04-23T06:21:52.854Z,85.66
2018-04-23T06:23:03.019Z,84.99
2018-04-23T06:24:12.946Z,84.6
2018-04-23T06:25:23.101Z,84.51
2018-04-23T06:26:33.281Z,84.31
2018-04-23T06:27:43.427Z,84.31
2018-04-23T06:28:53.618Z,84.51
2018-04-23T06:30:03.597Z,84.17
2018-04-23T06:31:13.757Z,84.17
2018-04-23T06:32:24.025Z,84.26
2018-04-23T06:33:33.950Z,83.87
2018-04-23T06:34:44.197Z,84.07
2018-04-23T06:35:54.372Z,83.78
2018-04-23T06:37:04.528Z,83.69
2018-04-23T06:38:14.688Z,83.69
2018-04-23T06:39:24.832Z,83.69
2018-04-23T06:40:34.974Z,83.97
2018-04-23T06:41:45.198Z,84.36
2018-04-23T06:42:55.451Z,83.87
2018-04-23T06:44:05.602Z,83.97
2018-04-23T06:45:15.467Z,84.26
2018-04-23T06:46:25.705Z,83.78
2018-04-23T06:47:35.931Z,83.59
2018-04-23T06:48:46.132Z,83.59
2018-04-23T06:49:56.272Z,83.97
2018-04-23T06:51:06.480Z,83.78
2018-04-23T06:52:16.678Z,83.78
2018-04-23T06:53:26.618Z,83.69
2018-04-23T06:54:36.764Z,83.78
2018-04-23T06:55:46.954Z,83.78
2018-04-23T06:56:57.115Z,83.49
2018-04-23T06:58:07.307Z,83.59
2018-04-23T06:59:17.477Z,83.69
2018-04-23T07:00:27.630Z,83.69
2018-04-23T07:01:37.789Z,83.15
2018-04-23T07:02:47.969Z,83.4
2018-04-23T07:03:58.121Z,83.44
2018-04-23T07:05:08.481Z,83.53
2018-04-23T07:06:18.864Z,83.63
2018-04-23T07:07:29.043Z,83.06
2018-04-23T07:08:39.338Z,82.67
2018-04-23T07:09:49.570Z,82.96
2018-04-23T07:10:59.737Z,82.67
2018-04-23T07:12:09.881Z,82.57
2018-04-23T07:13:20.167Z,82.09
2018-04-23T07:14:30.344Z,82.38
2018-04-23T07:15:40.728Z,82.53
2018-04-23T07:16:50.938Z,82.63
2018-04-23T07:18:01.194Z,83.01
2018-04-23T07:19:11.397Z,82.82
2018-04-23T07:20:21.606Z,82.92
2018-04-23T07:21:31.737Z,82.63
2018-04-23T07:22:41.939Z,82.53
2018-04-23T07:23:53.085Z,82.73
2018-04-23T07:25:03.399Z,82.73
2018-04-23T07:26:13.570Z,82.49
2018-04-23T07:27:23.704Z,82.59
2018-04-23T07:28:33.864Z,82.82
2018-04-23T07:29:43.995Z,83.16
2018-04-23T07:30:54.134Z,83.26
2018-04-23T07:32:04.348Z,83.07
2018-04-23T07:33:14.513Z,83.16
2018-04-23T07:34:24.652Z,83.26
2018-04-23T07:35:34.823Z,83.07
2018-04-23T07:36:45.109Z,83.16
2018-04-23T07:37:55.576Z,83.07
2018-04-23T07:39:05.964Z,83.07
2018-04-23T07:40:16.232Z,83.03
2018-04-23T07:41:26.515Z,83.51
2018-04-23T07:42:36.769Z,83.12
2018-04-23T07:43:46.653Z,83.7
2018-04-23T07:44:56.845Z,83.6
2018-04-23T07:46:07.025Z,83.51
2018-04-23T07:47:17.194Z,84.08
2018-04-23T07:48:27.369Z,84.37
2018-04-23T07:49:37.523Z,84.56
2018-04-23T07:50:47.817Z,84.47
2018-04-23T07:51:58.092Z,85.04
2018-04-23T07:53:08.281Z,84.85
2018-04-23T07:54:18.576Z,85.04
2018-04-23T07:55:28.634Z,85.04
2018-04-23T07:56:38.835Z,85.04
2018-04-23T07:57:49.070Z,85.04
2018-04-23T07:58:59.500Z,85.52
2018-04-23T08:00:10.615Z,85.48
2018-04-23T08:01:20.806Z,85.77
2018-04-23T08:02:30.961Z,85.77
2018-04-23T08:03:41.229Z,85.67
2018-04-23T08:04:51.563Z,85.67
2018-04-23T08:06:01.730Z,86.25
2018-04-23T08:07:11.993Z,86.25
2018-04-23T08:08:22.191Z,86.34
2018-04-23T08:09:32.363Z,86.82
2018-04-23T08:10:42.575Z,86.44
2018-04-23T08:11:52.761Z,86.44
2018-04-23T08:13:03.000Z,86.34
2018-04-23T08:14:13.212Z,86.54
2018-04-23T08:15:23.470Z,87.11
2018-04-23T08:16:33.770Z,87.11
2018-04-23T08:17:43.965Z,86.63
2018-04-23T08:18:54.193Z,86.4
2018-04-23T08:20:04.076Z,86.49
2018-04-23T08:21:14.217Z,86.72
2018-04-23T08:22:24.352Z,86.21
2018-04-23T08:23:34.545Z,86.58
2018-04-23T08:24:44.582Z,86.68
2018-04-23T08:25:54.842Z,86.68
2018-04-23T08:27:05.108Z,86.3
2018-04-23T08:28:16.255Z,86.78
2018-04-23T08:29:26.428Z,86.15
2018-04-23T08:30:36.626Z,86.4
2018-04-23T08:31:46.910Z,86.11
2018-04-23T08:32:57.153Z,85.92
2018-04-23T08:34:07.407Z,85.48
2018-04-23T08:35:17.568Z,85.63
2018-04-23T08:36:27.812Z,85.25
2018-04-23T08:37:38.051Z,85.48
2018-04-23T08:38:48.287Z,84.91
2018-04-23T08:39:58.586Z,84.95
2018-04-23T08:41:08.613Z,84.86
2018-04-23T08:42:18.853Z,85
2018-04-23T08:43:29.012Z,85
2018-04-23T08:44:39.493Z,84.81
2018-04-23T08:45:49.700Z,84.81
2018-04-23T08:46:59.825Z,84.14
2018-04-23T08:48:10.050Z,84.42
2018-04-23T08:49:20.341Z,83.94
2018-04-23T08:50:30.615Z,83.65
2018-04-23T08:51:41.886Z,83.56
2018-04-23T08:52:51.720Z,83.85
2018-04-23T08:54:01.864Z,83.65
2018-04-23T08:55:12.076Z,83.47
2018-04-23T08:56:22.274Z,83.65
2018-04-23T08:57:32.487Z,83.27
2018-04-23T08:58:42.653Z,82.98
2018-04-23T08:59:52.912Z,82.89
2018-04-23T09:01:03.179Z,83.41
2018-04-23T09:02:13.424Z,82.74
2018-04-23T09:03:23.655Z,82.84
2018-04-23T09:04:33.561Z,82.54
2018-04-23T09:05:43.723Z,82.45
2018-04-23T09:06:53.923Z,81.97
2018-04-23T09:08:04.098Z,82.16
2018-04-23T09:09:14.274Z,81.59
2018-04-23T09:10:24.676Z,81.4
2018-04-23T09:11:34.863Z,80.76
2018-04-23T09:12:44.817Z,81.01
2018-04-23T09:13:55.068Z,81.34
2018-04-23T09:15:05.661Z,80.66
2018-04-23T09:16:16.484Z,80.96
2018-04-23T09:17:28.211Z,80.19
2018-04-23T09:18:39.237Z,80.38
2018-04-23T09:19:50.160Z,79.61
2018-04-23T09:21:01.182Z,79.71
2018-04-23T09:22:11.437Z,78.88
2018-04-23T09:23:22.148Z,78.98
2018-04-23T09:24:32.447Z,78.88
2018-04-23T09:25:42.640Z,78.5
2018-04-23T09:26:52.495Z,77.83
2018-04-23T09:28:02.649Z,77.83
2018-04-23T09:29:12.857Z,77.53
2018-04-23T09:30:22.759Z,76.96
2018-04-23T09:31:32.984Z,77.06
2018-04-23T09:32:43.284Z,77.25
2018-04-23T09:33:53.477Z,76.67
2018-04-23T09:35:03.616Z,76.96
2018-04-23T09:36:14.023Z,77.15
2018-04-23T09:37:24.247Z,76.39
2018-04-23T09:38:34.430Z,75.9
2018-04-23T09:39:44.556Z,75.65
2018-04-23T09:40:54.628Z,74.6
2018-04-23T09:42:04.871Z,72.74
2018-04-23T09:43:15.127Z,72.68
2018-04-23T09:44:25.357Z,72.72
2018-04-23T09:45:35.917Z,70.73
2018-04-23T09:46:45.820Z,70.28
2018-04-23T09:47:56.013Z,68.29
2018-04-23T09:49:06.199Z,68.59
2018-04-23T09:50:16.190Z,68.62
2018-04-23T09:51:26.341Z,66.63
2018-04-23T09:52:36.505Z,66.46
2018-04-23T09:53:46.654Z,65.72
2018-04-23T09:54:56.705Z,63.89
2018-04-23T09:56:06.911Z,64.59
2018-04-23T09:57:17.200Z,62.5
2018-04-23T09:58:28.660Z,61.95
2018-04-23T09:59:40.153Z,61.21
2018-04-23T10:00:50.480Z,59.84
2018-04-23T10:02:00.653Z,59.88
2018-04-23T10:03:10.861Z,58.45
2018-04-23T10:04:21.075Z,57.87
2018-04-23T10:05:31.278Z,55.67
2018-04-23T10:06:41.471Z,55.02
2018-04-23T10:07:51.649Z,54.82
2018-04-23T10:09:01.978Z,53.56
2018-04-23T10:10:12.172Z,54.63
2018-04-23T10:11:22.328Z,52.66
2018-04-23T10:12:32.635Z,53.73
2018-04-23T10:13:42.558Z,53.63
2018-04-23T10:14:52.722Z,53.08
2018-04-23T10:16:02.958Z,52.98
2018-04-23T10:17:13.159Z,52.11
2018-04-23T10:18:23.333Z,52.33
2018-04-23T10:19:33.504Z,51.26
2018-04-23T10:20:43.504Z,50.96
2018-04-23T10:21:53.731Z,50.58
2018-04-23T10:23:04.046Z,50.68
2018-04-23T10:24:14.228Z,51.48
2018-04-23T10:25:24.398Z,51.48
2018-04-23T10:26:34.558Z,49.44
2018-04-23T10:27:44.766Z,49.46
2018-04-23T10:28:54.966Z,48.97
2018-04-23T10:30:05.174Z,50.43
2018-04-23T10:31:15.337Z,49.73
2018-04-23T10:32:26.558Z,48.66
2018-04-23T10:33:36.708Z,49.17
2018-04-23T10:34:46.905Z,49.44
2018-04-23T10:35:57.122Z,49.46
2018-04-23T10:37:07.298Z,49.66
2018-04-23T10:38:17.503Z,48.49
2018-04-23T10:39:27.699Z,47.42
2018-04-23T10:40:37.891Z,46.25
2018-04-23T10:41:48.119Z,46.94
2018-04-23T10:42:58.396Z,47.03
2018-04-23T10:44:08.595Z,46.52
2018-04-23T10:45:18.821Z,47.88
2018-04-23T10:46:28.852Z,47.91
2018-04-23T10:47:39.043Z,47.42
2018-04-23T10:48:49.363Z,46.94
2018-04-23T10:49:59.707Z,47.81
2018-04-23T10:51:09.890Z,47.32
2018-04-23T10:52:20.124Z,46.35
2018-04-23T10:53:30.371Z,46.96
2018-04-23T10:54:40.571Z,46.77
2018-04-23T10:55:50.792Z,48.03
2018-04-23T10:57:00.645Z,47.44
2018-04-23T10:58:10.850Z,46.08
2018-04-23T10:59:21.014Z,46.25
2018-04-23T11:00:31.212Z,46.35
2018-04-23T11:01:41.457Z,46.45
2018-04-23T11:02:51.707Z,47.49
2018-04-23T11:04:01.911Z,48.44
2018-04-23T11:05:12.076Z,49.39
2018-04-23T11:06:22.237Z,49.95
2018-04-23T11:07:32.410Z,50.6
2018-04-23T11:08:42.585Z,49.85
2018-04-23T11:09:52.797Z,50.53
2018-04-23T11:11:03.114Z,50.53
2018-04-23T11:12:13.319Z,50.89
2018-04-23T11:13:23.598Z,51.37
2018-04-23T11:14:33.822Z,51.37
2018-04-23T11:15:44.064Z,50.5
2018-04-23T11:16:54.425Z,50.5
2018-04-23T11:18:04.618Z,50.41
2018-04-23T11:19:14.807Z,50.77
2018-04-23T11:20:24.966Z,50.5
2018-04-23T11:21:35.172Z,49.82
2018-04-23T11:22:45.392Z,50.12
2018-04-23T11:23:55.585Z,49.85
2018-04-23T11:25:05.431Z,49.49
2018-04-23T11:26:15.604Z,49.1
2018-04-23T11:27:25.772Z,48.44
2018-04-23T11:28:36.001Z,47.49
2018-04-23T11:29:46.291Z,47.4
2018-04-23T11:30:56.493Z,46.62
2018-04-23T11:32:06.404Z,46.91
2018-04-23T11:33:16.583Z,47.57
2018-04-23T11:34:26.393Z,47.66
2018-04-23T11:35:36.582Z,47.76
2018-04-23T11:36:46.811Z,48.13
2018-04-23T11:37:56.817Z,48.13
2018-04-23T11:39:06.740Z,48.69
2018-04-23T11:40:16.891Z,48.95
2018-04-23T11:41:27.077Z,49.15
2018-04-23T11:42:37.268Z,49.22
2018-04-23T11:43:47.227Z,49.32
2018-04-23T11:44:57.401Z,49.49
2018-04-23T11:46:07.333Z,49.97
2018-04-23T11:47:17.572Z,50.74
2018-04-23T11:48:27.749Z,50.82
2018-04-23T11:49:37.960Z,51.04
2018-04-23T11:50:48.290Z,51.42
2018-04-23T11:51:58.518Z,51.32
2018-04-23T11:53:08.831Z,50.65
2018-04-23T11:54:19.101Z,49.29
2018-04-23T11:55:29.268Z,49.29
2018-04-23T11:56:39.430Z,49.58
2018-04-23T11:57:49.615Z,50.65
2018-04-23T11:58:59.518Z,50.52
2018-04-23T12:00:09.702Z,51.1
2018-04-23T12:01:19.878Z,50.98
2018-04-23T12:02:30.133Z,49.82
2018-04-23T12:03:40.152Z,49.24
2018-04-23T12:04:50.360Z,49.44
2018-04-23T12:06:00.531Z,48.86
2018-04-23T12:07:10.704Z,48.86
2018-04-23T12:08:20.866Z,48.86
2018-04-23T12:09:31.102Z,48.83
2018-04-23T12:10:41.273Z,49.15
2018-04-23T12:11:51.498Z,49.32
2018-04-23T12:13:01.700Z,49.15
2018-04-23T12:14:11.373Z,49.41
2018-04-23T12:15:21.618Z,48.95
2018-04-23T12:16:31.256Z,49.05
2018-04-23T12:17:41.474Z,49.05
2018-04-23T12:18:51.766Z,47.99
2018-04-23T12:20:01.954Z,47.41
2018-04-23T12:21:12.132Z,46.83
2018-04-23T12:22:22.348Z,46.08
2018-04-23T12:23:32.657Z,45.98
2018-04-23T12:24:42.809Z,46.17
2018-04-23T12:25:53.060Z,45.9
2018-04-23T12:27:03.234Z,45.61
2018-04-23T12:28:13.430Z,44.84
2018-04-23T12:29:23.633Z,45.32
2018-04-23T12:30:33.544Z,45.51
2018-04-23T12:31:43.716Z,46.29
2018-04-23T12:32:53.944Z,46.09
2018-04-23T12:34:04.095Z,46.77
2018-04-23T12:35:14.302Z,46.19
2018-04-23T12:36:24.472Z,46.29
2018-04-23T12:37:34.275Z,47.06
2018-04-23T12:38:44.461Z,47.26
2018-04-23T12:39:54.731Z,45.9
2018-04-23T12:41:04.983Z,46.19
2018-04-23T12:42:15.171Z,45.88
2018-04-23T12:43:25.379Z,46.17
2018-04-23T12:44:35.591Z,45.68
2018-04-23T12:45:45.789Z,44.81
2018-04-23T12:46:56.149Z,44.91
2018-04-23T12:48:06.335Z,45.57
2018-04-23T12:49:16.517Z,46.15
2018-04-23T12:50:26.740Z,46.34
2018-04-23T12:51:37.012Z,46.42
2018-04-23T12:52:47.237Z,46.42
2018-04-23T12:53:57.458Z,47.19
2018-04-23T12:55:07.619Z,47.28
2018-04-23T12:56:17.807Z,46.8
2018-04-23T12:57:28.133Z,47
2018-04-23T12:58:38.359Z,47.09
2018-04-23T12:59:48.554Z,47.19
2018-04-23T13:00:58.812Z,46.12
2018-04-23T13:02:09.025Z,46.32
2018-04-23T13:03:19.228Z,46.8
2018-04-23T13:04:29.504Z,47.58
2018-04-23T13:05:39.724Z,47.48
2018-04-23T13:06:49.934Z,47.28
2018-04-23T13:08:01.097Z,47.67
2018-04-23T13:09:11.315Z,47.58
2018-04-23T13:10:21.495Z,47.38
2018-04-23T13:11:31.447Z,47.19
2018-04-23T13:12:41.633Z,47.38
2018-04-23T13:13:51.834Z,47.86
2018-04-23T13:15:02.001Z,48.06
2018-04-23T13:16:12.185Z,47.77
2018-04-23T13:17:22.187Z,48.16
2018-04-23T13:18:32.541Z,48.54
2018-04-23T13:19:42.715Z,47.58
2018-04-23T13:20:52.951Z,47.48
2018-04-23T13:22:03.117Z,47.67
2018-04-23T13:23:13.341Z,47.48
2018-04-23T13:24:23.560Z,47.58
2018-04-23T13:25:33.817Z,46.42
2018-04-23T13:26:44.059Z,46.1
2018-04-23T13:27:53.999Z,46.3
2018-04-23T13:29:04.156Z,46.3
2018-04-23T13:30:14.322Z,46.75
2018-04-23T13:31:24.533Z,47.14
2018-04-23T13:32:34.679Z,47.63
2018-04-23T13:33:44.933Z,47.24
2018-04-23T13:34:55.129Z,47.63
2018-04-23T13:36:05.378Z,47.43
2018-04-23T13:37:15.658Z,47.33
2018-04-23T13:38:25.988Z,47.99
2018-04-23T13:39:36.174Z,48.08
2018-04-23T13:40:46.341Z,47.89
2018-04-23T13:41:56.557Z,48.88
2018-04-23T13:43:06.760Z,48.86
2018-04-23T13:44:16.940Z,48.21
2018-04-23T13:45:27.154Z,48.57
2018-04-23T13:46:36.867Z,48.76
2018-04-23T13:47:47.056Z,48.88
2018-04-23T13:48:57.259Z,48.69
2018-04-23T13:50:07.492Z,48.01
2018-04-23T13:51:17.933Z,47.33
2018-04-23T13:52:27.876Z,47.91
2018-04-23T13:53:38.109Z,47.63
2018-04-23T13:54:48.368Z,47.72
2018-04-23T13:55:58.592Z,47.99
2018-04-23T13:57:08.762Z,48.76
2018-04-23T13:58:19.049Z,48.47
2018-04-23T13:59:29.231Z,48.57
2018-04-23T14:00:39.451Z,48.66
2018-04-23T14:01:49.694Z,48.57
2018-04-23T14:02:59.933Z,48.86
2018-04-23T14:04:10.282Z,49.24
2018-04-23T14:05:20.489Z,49.15
2018-04-23T14:06:30.705Z,48.47
2018-04-23T14:07:40.897Z,49.05
2018-04-23T14:08:51.073Z,49.44
2018-04-23T14:10:01.248Z,49.44
2018-04-23T14:11:11.422Z,49.6
2018-04-23T14:12:21.682Z,49.99
2018-04-23T14:13:31.957Z,49.63
2018-04-23T14:14:42.188Z,49.34
2018-04-23T14:15:52.419Z,49.15
2018-04-23T14:17:02.637Z,48.47
2018-04-23T14:18:12.826Z,48.54
2018-04-23T14:19:23.027Z,48.47
2018-04-23T14:20:33.222Z,48.83
2018-04-23T14:21:43.393Z,48.47
2018-04-23T14:22:53.674Z,48.86
2018-04-23T14:24:04.231Z,48.86
2018-04-23T14:25:14.478Z,49.24
2018-04-23T14:26:24.749Z,49.15
2018-04-23T14:27:35.167Z,48.47
2018-04-23T14:28:45.383Z,48.86
2018-04-23T14:29:55.623Z,47.99
2018-04-23T14:31:05.820Z,48.18
2018-04-23T14:32:15.760Z,47.99
2018-04-23T14:33:25.928Z,47.89
2018-04-23T14:34:36.152Z,47.89
2018-04-23T14:35:46.318Z,47.89
2018-04-23T14:36:56.510Z,47.12
2018-04-23T14:38:06.436Z,46.71
2018-04-23T14:39:16.626Z,46.42
2018-04-23T14:40:26.965Z,46.71
2018-04-23T14:41:36.938Z,46.81
2018-04-23T14:42:47.142Z,47.19
2018-04-23T14:43:57.322Z,47.48
2018-04-23T14:45:07.520Z,46.61
2018-04-23T14:46:17.737Z,45.45
2018-04-23T14:47:27.951Z,46.23
2018-04-23T14:48:38.169Z,46.33
2018-04-23T14:49:48.359Z,46.23
2018-04-23T14:50:58.331Z,46.23
2018-04-23T14:52:08.256Z,45.65
2018-04-23T14:53:18.575Z,45.75
2018-04-23T14:54:28.764Z,46.23
2018-04-23T14:55:38.969Z,45.65
2018-04-23T14:56:49.169Z,46.03
2018-04-23T14:57:59.345Z,46.13
2018-04-23T14:59:09.578Z,46.03
2018-04-23T15:00:19.829Z,46.42
2018-04-23T15:01:30.044Z,46.03
2018-04-23T15:02:40.251Z,45.94
2018-04-23T15:03:50.391Z,46.33
2018-04-23T15:05:00.638Z,46.61
2018-04-23T15:06:10.923Z,46.71
2018-04-23T15:07:20.891Z,47.09
2018-04-23T15:08:30.831Z,47.48
2018-04-23T15:09:40.804Z,47.19
2018-04-23T15:10:50.997Z,47.29